Pahala, Hawaii
Current Conditions -  °F | °C
As of 10:56 PM on Wednesday 17 Dec 2014 (Local Time) from PHSF Reporting Station
Clear Clear  
Wind Chill: 43°   Ceiling: Unl
Heat Index: 46°   Visibility: 10mi
Dew Point: 34°   Wind: 6mph
Humidity: 63%   Direction: 120°ESE
Pressure: 30.46"   Gusts: NA
Location:  19.2°N, 155.47°W
Report Text: PHSF 180856Z AUTO 12005KT 10SM CLR 08/01 A3046 RMK AO2 SLP207 T00770011 53002 $
Loading
Personal Weather Stations






























Interactive Weather Map New forecast layout! Learn more

10-Day Weather Forecast

Advertisements
Track Severe Weather on mobile